Time;durP1;ratioP1;P1;durP2;ratioP2;P2;SDS_P1;SDS_P2;PMS_P1;PMS_P2;Temp;Humidity;BMP_temperature;BMP_pressure;BME280_temperature;BME280_humidity;BME280_pressure;Samples;Min_cycle;Max_cycle;Signal;HPM_P1;HPM_P2
2022/01/09 00:02:21;;;;;;;28.80;13.47;;;;;;;-5.83;100.00;97760.66;4955173;28;20046;-60
2022/01/09 00:04:47;;;;;;;28.53;14.20;;;;;;;-5.86;100.00;97748.13;4956314;28;20134;-60
2022/01/09 00:07:12;;;;;;;26.53;14.30;;;;;;;-5.85;100.00;97750.63;4955638;28;20035;-60
2022/01/09 00:09:41;;;;;;;23.97;13.27;;;;;;;-5.89;100.00;97741.38;4954270;28;20036;-59
2022/01/09 00:12:07;;;;;;;27.57;14.73;;;;;;;-5.92;100.00;97733.81;4959895;28;20437;-60
2022/01/09 00:14:32;;;;;;;28.73;13.07;;;;;;;-5.92;100.00;97730.47;4955905;28;20043;-58
2022/01/09 00:16:59;;;;;;;23.03;12.20;;;;;;;-5.94;100.00;97734.56;4958450;28;20055;-59
2022/01/09 00:19:25;;;;;;;28.07;12.50;;;;;;;-6.00;100.00;97727.75;4960324;28;20053;-59
2022/01/09 00:21:51;;;;;;;21.13;11.87;;;;;;;-6.04;100.00;97718.47;4954952;28;20048;-60
2022/01/09 00:24:16;;;;;;;25.17;11.53;;;;;;;-6.04;100.00;97711.00;4955740;28;20472;-60
2022/01/09 00:26:42;;;;;;;27.77;13.47;;;;;;;-6.08;100.00;97707.56;4955670;28;20082;-61
2022/01/09 00:29:09;;;;;;;21.87;11.30;;;;;;;-6.01;100.00;97708.59;4958669;28;20150;-62
2022/01/09 00:31:35;;;;;;;23.70;11.37;;;;;;;-6.08;100.00;97704.22;4958175;28;20509;-59
2022/01/09 00:34:01;;;;;;;29.87;12.13;;;;;;;-6.09;100.00;97705.84;4957638;28;20066;-58
2022/01/09 00:36:27;;;;;;;26.77;13.53;;;;;;;-6.09;100.00;97700.88;4955917;28;20043;-59
2022/01/09 00:38:52;;;;;;;26.53;13.20;;;;;;;-6.08;100.00;97697.59;4956362;28;20082;-62
2022/01/09 00:41:17;;;;;;;22.97;13.53;;;;;;;-6.08;100.00;97694.25;4954736;28;20138;-59
2022/01/09 00:43:43;;;;;;;29.70;14.30;;;;;;;-6.07;100.00;97695.94;4951993;28;20513;-59
2022/01/09 00:46:09;;;;;;;36.70;15.27;;;;;;;-6.11;100.00;97666.72;4954599;28;20047;-60
2022/01/09 00:48:37;;;;;;;34.10;16.07;;;;;;;-6.12;100.00;97680.84;4957406;28;20035;-60
2022/01/09 00:51:02;;;;;;;33.07;15.70;;;;;;;-6.16;100.00;97669.06;4954361;28;20031;-59
2022/01/09 00:53:28;;;;;;;31.73;16.03;;;;;;;-6.18;100.00;97660.69;4956106;28;20547;-56
2022/01/09 00:55:53;;;;;;;31.83;15.97;;;;;;;-6.17;100.00;97666.53;4953305;28;20034;-60
2022/01/09 00:58:19;;;;;;;28.73;13.90;;;;;;;-6.23;100.00;97656.34;4959258;28;20074;-61
2022/01/09 01:00:44;;;;;;;29.43;13.87;;;;;;;-6.28;100.00;97656.22;4959147;28;20036;-58
2022/01/09 01:03:10;;;;;;;33.47;15.93;;;;;;;-6.26;100.00;97662.09;4956901;28;20058;-58
2022/01/09 01:05:35;;;;;;;24.33;14.33;;;;;;;-6.27;100.00;97652.91;4955208;28;20096;-59
2022/01/09 01:08:01;;;;;;;22.97;12.50;;;;;;;-6.22;100.00;97650.56;4958673;28;20046;-61
2022/01/09 01:10:27;;;;;;;29.63;15.37;;;;;;;-6.17;100.00;97651.56;4954515;28;20035;-59
2022/01/09 01:12:52;;;;;;;22.40;12.37;;;;;;;-6.17;100.00;97649.06;4941966;28;20404;-59
2022/01/09 01:15:18;;;;;;;24.40;11.97;;;;;;;-6.12;100.00;97647.56;4957464;28;20510;-60
2022/01/09 01:17:44;;;;;;;27.27;11.53;;;;;;;-6.04;100.00;97637.00;4958038;28;20101;-59
2022/01/09 01:20:11;;;;;;;22.73;11.10;;;;;;;-5.93;100.00;97631.47;4954446;28;20484;-61
2022/01/09 01:22:37;;;;;;;16.83;10.77;;;;;;;-5.95;100.00;97625.59;4957229;28;20086;-58
2022/01/09 01:25:04;;;;;;;20.57;10.30;;;;;;;-6.04;100.00;97619.56;4943385;28;20038;-58
2022/01/09 01:27:30;;;;;;;21.33;10.20;;;;;;;-6.03;100.00;97613.75;4959131;28;20093;-59
2022/01/09 01:29:56;;;;;;;18.77;9.67;;;;;;;-6.06;100.00;97596.19;4954170;28;20035;-59
2022/01/09 01:32:22;;;;;;;18.97;9.80;;;;;;;-5.99;100.00;97592.25;4952966;28;20039;-58
2022/01/09 01:34:48;;;;;;;19.33;9.30;;;;;;;-6.03;100.00;97581.34;4965098;28;20039;-60
2022/01/09 01:37:13;;;;;;;19.57;9.43;;;;;;;-6.08;100.00;97567.88;4967606;28;20041;-59
2022/01/09 01:39:39;;;;;;;17.20;9.87;;;;;;;-6.02;100.00;97567.19;4958681;28;20039;-58
2022/01/09 01:42:04;;;;;;;19.50;10.23;;;;;;;-5.95;100.00;97560.75;4956491;28;20039;-58
2022/01/09 01:44:47;;;;;;;27.17;10.80;;;;;;;-5.94;100.00;97558.28;4956041;28;20078;-60
2022/01/09 01:47:15;;;;;;;18.80;10.87;;;;;;;-5.94;100.00;97550.78;4954837;28;20054;-59
2022/01/09 01:49:41;;;;;;;18.70;9.00;;;;;;;-5.99;100.00;97541.50;4957290;28;20117;-59
2022/01/09 01:52:09;;;;;;;19.70;10.03;;;;;;;-5.86;100.00;97551.84;4960907;28;20035;-58
2022/01/09 01:54:35;;;;;;;17.67;8.57;;;;;;;-5.77;100.00;97551.25;4955837;28;20054;-60
2022/01/09 01:57:02;;;;;;;16.17;8.40;;;;;;;-5.70;100.00;97550.59;4957107;28;20401;-62
2022/01/09 01:59:29;;;;;;;13.90;8.07;;;;;;;-5.70;100.00;97546.44;4959189;28;20031;-61
2022/01/09 02:01:55;;;;;;;16.87;6.93;;;;;;;-5.56;100.00;97545.13;4958848;28;20034;-61
2022/01/09 02:04:20;;;;;;;17.63;7.20;;;;;;;-5.49;100.00;97542.81;4958045;28;20140;-61
2022/01/09 02:06:46;;;;;;;12.03;6.77;;;;;;;-5.53;100.00;97539.41;4955709;28;20038;-61
2022/01/09 02:09:12;;;;;;;15.10;7.13;;;;;;;-5.49;100.00;97530.31;4957485;28;20031;-60
2022/01/09 02:11:38;;;;;;;15.50;7.30;;;;;;;-5.58;100.00;97516.81;4959291;28;20381;-60
2022/01/09 02:14:03;;;;;;;13.03;6.53;;;;;;;-5.56;100.00;97519.34;4949483;28;20046;-59
2022/01/09 02:16:29;;;;;;;16.03;7.40;;;;;;;-5.63;100.00;97525.81;4960654;28;20055;-59
2022/01/09 02:18:57;;;;;;;14.47;7.83;;;;;;;-5.65;100.00;97524.97;4963851;28;20436;-62
2022/01/09 02:21:23;;;;;;;16.60;7.30;;;;;;;-5.63;100.00;97517.47;4959482;28;20039;-59
2022/01/09 02:23:49;;;;;;;18.53;8.67;;;;;;;-5.71;100.00;97513.94;4959525;28;20493;-59
2022/01/09 02:26:19;;;;;;;18.50;7.90;;;;;;;-5.75;100.00;97518.03;4952776;28;20493;-61
2022/01/09 02:28:47;;;;;;;16.80;9.27;;;;;;;-5.80;100.00;97509.56;4961329;28;20074;-60
2022/01/09 02:31:14;;;;;;;18.53;8.57;;;;;;;-5.82;100.00;97498.72;4959459;28;20473;-60
2022/01/09 02:33:40;;;;;;;20.03;9.27;;;;;;;-5.86;100.00;97496.94;4957675;28;20083;-59
2022/01/09 02:36:05;;;;;;;17.10;8.73;;;;;;;-5.92;100.00;97489.31;4960778;28;20426;-60
2022/01/09 02:38:32;;;;;;;17.00;8.10;;;;;;;-5.92;100.00;97486.81;4964678;28;20035;-61
2022/01/09 02:40:57;;;;;;;20.40;9.27;;;;;;;-5.90;100.00;97479.38;4962423;28;20086;-61
2022/01/09 02:43:23;;;;;;;12.97;7.57;;;;;;;-5.90;100.00;97466.91;4958531;28;20038;-59
2022/01/09 02:45:58;;;;;;;17.13;8.00;;;;;;;-5.89;100.00;97464.44;4959500;28;20560;-59
2022/01/09 02:48:24;;;;;;;12.73;7.60;;;;;;;-5.86;100.00;97469.50;4962241;28;20106;-59
2022/01/09 02:51:03;;;;;;;19.63;9.00;;;;;;;-5.85;100.00;97456.19;4957585;28;20043;-61
2022/01/09 02:53:33;;;;;;;16.07;8.73;;;;;;;-5.83;100.00;97447.13;4957405;28;20019;-60
2022/01/09 02:55:58;;;;;;;17.40;9.27;;;;;;;-5.85;100.00;97440.38;4961402;28;20035;-59
2022/01/09 02:58:24;;;;;;;13.93;7.83;;;;;;;-5.86;100.00;97432.06;4965800;28;20030;-61
2022/01/09 03:00:49;;;;;;;15.60;8.87;;;;;;;-5.80;100.00;97423.88;4960042;28;20023;-58
2022/01/09 03:03:15;;;;;;;19.63;10.40;;;;;;;-5.81;100.00;97414.72;4961138;28;20042;-57
2022/01/09 03:05:40;;;;;;;14.27;7.87;;;;;;;-5.82;100.00;97418.03;4961103;28;20415;-57
2022/01/09 03:08:06;;;;;;;20.00;9.37;;;;;;;-5.84;100.00;97415.47;4961349;28;20086;-58
2022/01/09 03:10:31;;;;;;;14.20;8.30;;;;;;;-5.90;100.00;97415.38;4959118;28;20035;-57
2022/01/09 03:12:58;;;;;;;15.87;7.87;;;;;;;-5.84;100.00;97412.13;4958000;28;20035;-56
2022/01/09 03:15:25;;;;;;;15.20;8.10;;;;;;;-5.85;100.00;97411.28;4960881;28;20055;-56
2022/01/09 03:17:50;;;;;;;19.03;8.80;;;;;;;-5.80;100.00;97404.75;4960173;28;20035;-59
2022/01/09 03:20:18;;;;;;;23.10;8.40;;;;;;;-5.84;100.00;97398.00;4959786;28;20031;-57
2022/01/09 03:22:44;;;;;;;18.27;9.90;;;;;;;-5.83;100.00;97396.38;4959566;28;20062;-60
2022/01/09 03:25:11;;;;;;;15.27;8.43;;;;;;;-5.84;100.00;97397.16;4960843;28;20530;-58
2022/01/09 03:27:38;;;;;;;15.30;8.50;;;;;;;-5.82;100.00;97390.56;4959845;28;20037;-59
2022/01/09 03:30:05;;;;;;;15.67;8.50;;;;;;;-5.75;100.00;97389.91;4959118;28;20036;-60
2022/01/09 03:32:31;;;;;;;14.70;7.30;;;;;;;-5.74;100.00;97386.59;4958437;28;20069;-58
2022/01/09 03:34:56;;;;;;;11.13;5.70;;;;;;;-5.80;100.00;97371.47;4955966;28;20137;-60
2022/01/09 03:37:22;;;;;;;12.03;6.83;;;;;;;-5.82;100.00;97368.97;4953736;28;20630;-61
2022/01/09 03:39:47;;;;;;;13.73;6.70;;;;;;;-5.93;100.00;97360.38;4960064;28;20026;-62
2022/01/09 03:42:13;;;;;;;10.10;6.40;;;;;;;-5.91;100.00;97370.41;4938909;28;20093;-58
2022/01/09 03:44:38;;;;;;;14.73;6.53;;;;;;;-5.90;100.00;97354.66;4958457;28;20031;-61
2022/01/09 03:47:04;;;;;;;10.37;5.77;;;;;;;-5.95;100.00;97356.19;4956486;28;20465;-61
2022/01/09 03:49:29;;;;;;;9.97;5.60;;;;;;;-5.95;100.00;97356.19;4955153;28;20042;-59
2022/01/09 03:51:56;;;;;;;10.90;5.60;;;;;;;-5.99;100.00;97350.28;4956647;28;20035;-60
2022/01/09 03:54:22;;;;;;;11.13;7.00;;;;;;;-5.96;100.00;97349.50;4960855;28;20113;-59
2022/01/09 03:56:49;;;;;;;12.97;6.77;;;;;;;-5.96;100.00;97335.38;4957288;28;20568;-56
2022/01/09 03:59:16;;;;;;;12.57;6.30;;;;;;;-5.99;100.00;97322.84;4956513;28;20027;-58
2022/01/09 04:01:41;;;;;;;13.10;7.60;;;;;;;-5.95;100.00;97321.25;4959658;28;20039;-59
2022/01/09 04:04:07;;;;;;;10.97;5.97;;;;;;;-6.00;100.00;97316.16;4960030;28;20045;-58
2022/01/09 04:06:33;;;;;;;11.50;6.03;;;;;;;-6.03;100.00;97311.09;4956752;28;20105;-56
2022/01/09 04:09:06;;;;;;;11.23;6.47;;;;;;;-6.06;100.00;97319.34;4955736;28;20059;-59
2022/01/09 04:11:36;;;;;;;11.73;5.93;;;;;;;-6.01;100.00;97315.31;4960987;28;20035;-60
2022/01/09 04:14:01;;;;;;;13.27;7.17;;;;;;;-5.87;100.00;97308.16;4960157;28;20023;-62
2022/01/09 04:16:27;;;;;;;11.30;7.20;;;;;;;-5.93;100.00;97299.66;4955073;28;20051;-60
2022/01/09 04:18:53;;;;;;;13.03;5.97;;;;;;;-5.86;100.00;97314.81;4955748;28;20027;-60
2022/01/09 04:21:19;;;;;;;15.87;6.83;;;;;;;-5.86;100.00;97312.31;4944964;28;20041;-57
2022/01/09 04:23:45;;;;;;;31.63;11.30;;;;;;;-5.95;100.00;97303.78;4961626;28;20386;-55
2022/01/09 04:26:10;;;;;;;20.40;8.83;;;;;;;-6.00;100.00;97306.19;4958481;28;20038;-60
2022/01/09 04:28:36;;;;;;;15.80;8.57;;;;;;;-5.95;100.00;97307.13;4956755;28;20035;-52
2022/01/09 04:31:01;;;;;;;20.23;8.07;;;;;;;-6.04;100.00;97301.94;4956080;28;20027;-52
2022/01/09 04:33:26;;;;;;;29.07;11.63;;;;;;;-6.02;100.00;97305.28;4955777;28;20035;-52
2022/01/09 04:35:52;;;;;;;42.43;13.27;;;;;;;-5.99;100.00;97300.41;4957182;28;20034;-54
2022/01/09 04:38:17;;;;;;;39.80;15.57;;;;;;;-5.98;100.00;97299.56;4942738;28;20038;-56
2022/01/09 04:40:43;;;;;;;23.67;8.67;;;;;;;-5.99;100.00;97292.91;4956174;28;20063;-54
2022/01/09 04:43:10;;;;;;;10.50;5.50;;;;;;;-5.89;100.00;97286.47;4957052;28;20482;-54
2022/01/09 04:45:36;;;;;;;11.13;5.37;;;;;;;-5.86;100.00;97279.88;4954289;28;20328;-54
2022/01/09 04:48:05;;;;;;;7.30;4.47;;;;;;;-5.86;100.00;97289.06;4957048;28;20098;-55
2022/01/09 04:50:33;;;;;;;11.60;5.93;;;;;;;-5.87;100.00;97285.72;4957913;28;20035;-53
2022/01/09 04:53:04;;;;;;;10.27;5.63;;;;;;;-5.87;100.00;97283.22;4956468;28;20555;-56
2022/01/09 04:55:32;;;;;;;9.13;5.20;;;;;;;-5.88;100.00;97271.53;4951875;28;20046;-55
2022/01/09 04:57:58;;;;;;;13.43;5.00;;;;;;;-5.90;100.00;97265.69;4950955;28;20051;-54
2022/01/09 05:00:24;;;;;;;13.40;4.37;;;;;;;-5.87;100.00;97269.88;4956699;28;20160;-53
2022/01/09 05:02:49;;;;;;;6.57;4.67;;;;;;;-5.88;100.00;97271.53;4954578;28;20038;-52
2022/01/09 05:05:16;;;;;;;8.03;4.67;;;;;;;-5.87;100.00;97270.75;4956215;28;20027;-56
2022/01/09 05:07:42;;;;;;;8.73;4.60;;;;;;;-5.89;100.00;97264.00;4954194;28;20031;-54
2022/01/09 05:10:09;;;;;;;8.73;4.70;;;;;;;-5.92;100.00;97257.31;4955827;28;20043;-59
2022/01/09 05:12:35;;;;;;;7.30;4.43;;;;;;;-5.86;100.00;97267.41;4956556;28;20094;-53
2022/01/09 05:15:01;;;;;;;7.93;4.33;;;;;;;-5.81;100.00;97258.34;4957667;28;20469;-52
2022/01/09 05:17:27;;;;;;;10.07;5.20;;;;;;;-5.86;100.00;97256.63;4962084;28;20893;-56
2022/01/09 05:19:57;;;;;;;12.40;6.10;;;;;;;-5.76;100.00;97260.94;4960533;28;20039;-55
2022/01/09 05:22:23;;;;;;;14.43;7.73;;;;;;;-5.71;100.00;97265.25;4959539;28;20027;-53
2022/01/09 05:24:49;;;;;;;13.20;6.47;;;;;;;-5.78;100.00;97255.94;4961920;28;20701;-53
2022/01/09 05:27:14;;;;;;;7.33;4.80;;;;;;;-5.72;100.00;97256.06;4970579;28;20030;-56
2022/01/09 05:29:40;;;;;;;7.93;4.30;;;;;;;-5.75;100.00;97257.66;4969169;28;20037;-53
2022/01/09 05:32:05;;;;;;;8.00;4.70;;;;;;;-5.71;100.00;97255.25;4966831;28;20110;-54
2022/01/09 05:34:31;;;;;;;9.73;5.23;;;;;;;-5.69;100.00;97253.66;4964316;28;20132;-53
2022/01/09 05:36:57;;;;;;;8.60;4.90;;;;;;;-5.69;100.00;97256.16;4962934;28;20445;-53
2022/01/09 05:39:22;;;;;;;9.00;4.17;;;;;;;-5.71;100.00;97255.25;4963710;28;20023;-54
2022/01/09 05:41:48;;;;;;;6.43;4.37;;;;;;;-5.75;100.00;97252.66;4960643;28;20026;-54
2022/01/09 05:44:13;;;;;;;6.13;4.00;;;;;;;-5.74;100.00;97254.34;4962974;28;20119;-54
2022/01/09 05:46:39;;;;;;;7.80;4.33;;;;;;;-5.78;100.00;97252.59;4965279;28;20066;-56
2022/01/09 05:49:04;;;;;;;7.50;4.60;;;;;;;-5.80;100.00;97260.03;4965417;28;20114;-55
2022/01/09 05:51:30;;;;;;;6.53;3.83;;;;;;;-5.78;100.00;97258.44;4964002;28;20035;-55
2022/01/09 05:53:55;;;;;;;8.93;4.60;;;;;;;-5.79;100.00;97245.91;4962341;28;20038;-55
2022/01/09 05:56:21;;;;;;;8.87;5.13;;;;;;;-5.83;100.00;97259.97;4964903;28;20663;-55
2022/01/09 05:58:46;;;;;;;5.93;3.87;;;;;;;-5.77;100.00;97250.13;4958101;28;20031;-54
2022/01/09 06:01:12;;;;;;;6.33;3.30;;;;;;;-5.63;100.00;97248.78;4957608;28;20037;-57
2022/01/09 06:03:37;;;;;;;4.47;3.33;;;;;;;-5.62;100.00;97245.47;4957369;28;20671;-55
2022/01/09 06:06:03;;;;;;;5.37;2.93;;;;;;;-5.69;100.00;97233.69;4961285;28;20022;-52
2022/01/09 06:08:28;;;;;;;5.57;3.23;;;;;;;-5.63;100.00;97240.44;4963190;28;20448;-53
2022/01/09 06:10:54;;;;;;;7.10;3.37;;;;;;;-5.66;100.00;97236.25;4954737;28;20067;-55
2022/01/09 06:13:19;;;;;;;9.60;3.77;;;;;;;-5.65;100.00;97235.44;4964156;28;20042;-56
2022/01/09 06:15:45;;;;;;;6.03;3.40;;;;;;;-5.66;100.00;97233.75;4962670;28;20082;-52
2022/01/09 06:18:12;;;;;;;6.30;3.37;;;;;;;-5.64;100.00;97233.75;4959375;28;20477;-55
2022/01/09 06:20:38;;;;;;;4.53;3.20;;;;;;;-5.64;100.00;97226.28;4954629;28;20031;-53
2022/01/09 06:23:03;;;;;;;4.83;3.27;;;;;;;-5.67;100.00;97228.72;4955773;28;20031;-54
2022/01/09 06:25:29;;;;;;;6.40;3.73;;;;;;;-5.64;100.00;97234.59;4958698;28;20065;-54
2022/01/09 06:27:54;;;;;;;5.77;3.83;;;;;;;-5.55;100.00;97232.31;4959730;28;20113;-52
2022/01/09 06:30:20;;;;;;;7.03;4.13;;;;;;;-5.54;100.00;97229.00;4954897;28;20039;-54
2022/01/09 06:32:45;;;;;;;7.03;3.67;;;;;;;-5.48;100.00;97224.97;4954242;28;20074;-55
2022/01/09 06:35:11;;;;;;;6.10;4.27;;;;;;;-5.54;100.00;97219.03;4952590;28;20122;-52
2022/01/09 06:37:36;;;;;;;9.83;4.63;;;;;;;-5.51;100.00;97218.22;4960282;28;20242;-52
2022/01/09 06:40:03;;;;;;;6.30;4.07;;;;;;;-5.44;100.00;97217.56;4953163;28;20031;-52
2022/01/09 06:42:29;;;;;;;5.33;3.60;;;;;;;-5.48;100.00;97218.31;4956590;28;20157;-56
2022/01/09 06:44:54;;;;;;;6.50;3.73;;;;;;;-5.47;100.00;97219.97;4959499;28;20039;-53
2022/01/09 06:47:19;;;;;;;7.53;3.37;;;;;;;-5.46;100.00;97214.19;4953988;28;20035;-52
2022/01/09 06:49:46;;;;;;;9.33;4.60;;;;;;;-5.41;100.00;97217.63;4954995;28;20030;-53
2022/01/09 06:52:11;;;;;;;7.97;4.73;;;;;;;-5.39;100.00;97223.50;4955684;28;20460;-54
2022/01/09 06:54:36;;;;;;;6.70;3.80;;;;;;;-5.30;100.00;97221.16;4946706;28;20130;-53
2022/01/09 06:57:02;;;;;;;3.37;3.07;;;;;;;-5.23;100.00;97212.16;4952180;28;20050;-53
2022/01/09 06:59:27;;;;;;;8.17;3.93;;;;;;;-5.18;100.00;97215.59;4953904;28;20031;-53
2022/01/09 07:01:53;;;;;;;6.87;3.63;;;;;;;-5.14;100.00;97218.16;4952877;28;20094;-54
2022/01/09 07:04:18;;;;;;;11.13;4.37;;;;;;;-5.06;100.00;97220.81;4956008;28;20438;-52
2022/01/09 07:06:44;;;;;;;6.93;3.80;;;;;;;-5.02;100.00;97226.69;4953627;28;20039;-55
2022/01/09 07:09:09;;;;;;;5.03;3.07;;;;;;;-5.00;100.00;97225.91;4955892;28;20027;-53
2022/01/09 07:11:35;;;;;;;6.30;3.93;;;;;;;-4.90;100.00;97241.91;4955961;28;20490;-54
2022/01/09 07:14:00;;;;;;;11.80;7.50;;;;;;;-4.85;100.00;97246.19;4958515;28;20031;-55
2022/01/09 07:16:26;;;;;;;14.13;8.63;;;;;;;-4.87;100.00;97250.31;4956969;28;20161;-54
2022/01/09 07:18:52;;;;;;;13.33;9.03;;;;;;;-4.79;100.00;97257.94;4957979;28;20053;-52
2022/01/09 07:21:17;;;;;;;20.33;11.00;;;;;;;-4.65;100.00;97266.53;4952714;28;20297;-54
2022/01/09 07:23:43;;;;;;;16.37;10.70;;;;;;;-4.56;100.00;97255.84;4954981;28;20023;-55
2022/01/09 07:26:08;;;;;;;19.23;10.00;;;;;;;-4.49;100.00;97255.13;4953333;28;20125;-53
2022/01/09 07:28:34;;;;;;;18.00;8.87;;;;;;;-4.37;100.00;97255.38;4954732;28;20042;-52
2022/01/09 07:30:59;;;;;;;16.80;8.13;;;;;;;-4.26;100.00;97254.72;4956437;28;20034;-52
2022/01/09 07:33:25;;;;;;;12.00;6.87;;;;;;;-4.19;100.00;97264.00;4956486;28;20076;-52
2022/01/09 07:35:50;;;;;;;12.90;7.03;;;;;;;-4.06;100.00;97265.03;4953947;28;20488;-53
2022/01/09 07:38:16;;;;;;;10.20;5.77;;;;;;;-3.95;100.00;97273.56;4952296;28;20418;-54
2022/01/09 07:40:41;;;;;;;8.57;4.87;;;;;;;-3.91;100.00;97274.47;4956987;28;20037;-53
2022/01/09 07:43:07;;;;;;;7.93;5.40;;;;;;;-3.81;100.00;97287.13;4953928;28;20485;-52
2022/01/09 07:45:33;;;;;;;12.67;6.93;;;;;;;-3.75;100.00;97286.38;4950259;28;20035;-54
2022/01/09 07:48:00;;;;;;;6.93;4.60;;;;;;;-3.73;100.00;97285.56;4952952;28;20733;-52
2022/01/09 07:50:27;;;;;;;7.13;4.43;;;;;;;-3.61;100.00;97274.91;4955457;28;20031;-52
2022/01/09 07:52:53;;;;;;;8.93;5.30;;;;;;;-3.52;100.00;97279.22;4941001;28;20041;-58
2022/01/09 07:55:20;;;;;;;10.37;4.53;;;;;;;-3.45;100.00;97271.81;4951482;28;20132;-57
2022/01/09 07:57:46;;;;;;;6.90;4.93;;;;;;;-3.33;100.00;97271.97;4954929;28;20031;-55
2022/01/09 08:00:13;;;;;;;7.90;5.20;;;;;;;-3.24;100.00;97256.19;4952939;28;20027;-53
2022/01/09 08:02:39;;;;;;;15.63;9.00;;;;;;;-3.27;100.00;97271.22;4953283;28;20501;-56
2022/01/09 08:05:05;;;;;;;21.67;11.77;;;;;;;-3.25;100.00;97269.53;4949302;28;20030;-52
2022/01/09 08:07:31;;;;;;;20.80;11.20;;;;;;;-3.07;100.00;97261.41;4954903;28;20557;-52
2022/01/09 08:09:56;;;;;;;15.90;8.73;;;;;;;-3.02;100.00;97258.16;4956448;28;20089;-53
2022/01/09 08:12:22;;;;;;;17.13;9.63;;;;;;;-2.93;100.00;97265.75;4952502;28;20039;-55
2022/01/09 08:14:47;;;;;;;14.90;7.37;;;;;;;-2.97;100.00;97270.75;4951879;28;20481;-52
2022/01/09 08:17:13;;;;;;;11.23;7.63;;;;;;;-2.96;100.00;97267.38;4955718;28;20251;-57
2022/01/09 08:19:39;;;;;;;10.27;5.20;;;;;;;-2.80;100.00;97260.06;4954435;28;20512;-56
2022/01/09 08:22:06;;;;;;;10.83;7.50;;;;;;;-2.62;100.00;97251.03;4954556;28;20055;-53
2022/01/09 08:24:33;;;;;;;12.63;6.47;;;;;;;-2.48;100.00;97240.34;4950670;28;20345;-55
2022/01/09 08:26:58;;;;;;;10.87;6.00;;;;;;;-2.50;100.00;97243.63;4953930;28;20465;-57
2022/01/09 08:29:24;;;;;;;14.20;6.13;;;;;;;-2.41;100.00;97236.19;4956749;28;20086;-54
2022/01/09 08:31:49;;;;;;;16.70;8.50;;;;;;;-2.37;100.00;97252.97;4954011;28;20034;-56
2022/01/09 08:34:15;;;;;;;20.43;10.67;;;;;;;-2.21;100.00;97251.44;4951390;28;20062;-54
2022/01/09 08:36:41;;;;;;;23.33;12.03;;;;;;;-2.10;100.00;97254.88;4958095;28;20435;-54
2022/01/09 08:39:07;;;;;;;18.83;10.03;;;;;;;-2.15;100.00;97254.00;4956314;28;20114;-53
2022/01/09 08:41:33;;;;;;;24.70;12.63;;;;;;;-2.24;100.00;97269.81;4952877;28;20054;-57
2022/01/09 08:44:01;;;;;;;31.97;13.73;;;;;;;-2.13;100.00;97268.25;4953226;28;20078;-57
2022/01/09 08:46:27;;;;;;;24.47;12.10;;;;;;;-2.03;100.00;97254.94;4959564;28;20177;-57
2022/01/09 08:48:53;;;;;;;19.17;10.80;;;;;;;-2.05;100.00;97268.31;4958303;28;20031;-55
2022/01/09 08:51:18;;;;;;;36.23;13.13;;;;;;;-2.17;100.00;97285.78;4956644;28;20027;-58
2022/01/09 08:53:50;;;;;;;35.03;16.97;;;;;;;-1.98;100.00;97285.94;4956451;28;20117;-57
2022/01/09 08:56:16;;;;;;;25.50;14.20;;;;;;;-1.92;100.00;97280.13;4959370;28;20520;-58
2022/01/09 08:58:42;;;;;;;19.63;10.50;;;;;;;-1.81;100.00;97296.13;4957080;28;20042;-58
2022/01/09 09:01:07;;;;;;;18.73;10.30;;;;;;;-1.69;100.00;97290.34;4956037;28;20408;-56
2022/01/09 09:03:34;;;;;;;14.43;9.57;;;;;;;-1.55;100.00;97297.16;4956875;28;20034;-60
2022/01/09 09:05:59;;;;;;;14.17;9.97;;;;;;;-1.55;100.00;97299.66;4959972;28;20035;-59
2022/01/09 09:08:25;;;;;;;13.10;10.93;;;;;;;-1.48;100.00;97303.91;4957462;28;20023;-59
2022/01/09 09:10:50;;;;;;;16.40;10.17;;;;;;;-1.65;100.00;97287.00;4954781;28;20031;-59
2022/01/09 09:13:15;;;;;;;15.70;10.07;;;;;;;-1.67;100.00;97294.56;4954435;28;20603;-56
2022/01/09 09:15:41;;;;;;;16.63;11.63;;;;;;;-1.69;100.00;97307.91;4957687;28;20206;-54
2022/01/09 09:18:06;;;;;;;34.07;16.03;;;;;;;-1.65;100.00;97280.31;4959650;28;20039;-58
2022/01/09 09:20:32;;;;;;;28.00;14.17;;;;;;;-1.53;100.00;97309.75;4957183;28;20567;-57
2022/01/09 09:22:57;;;;;;;22.23;12.83;;;;;;;-1.43;100.00;97301.41;4956113;28;20451;-54
2022/01/09 09:25:22;;;;;;;19.20;11.10;;;;;;;-1.35;100.00;97307.31;4948902;28;20571;-56
2022/01/09 09:27:48;;;;;;;25.27;14.60;;;;;;;-1.34;100.00;97298.97;4958992;28;20177;-56
2022/01/09 09:30:14;;;;;;;24.23;13.87;;;;;;;-1.52;100.00;97297.16;4953165;28;20031;-56
2022/01/09 09:32:41;;;;;;;25.80;12.90;;;;;;;-1.25;100.00;97316.63;4955507;28;20084;-54
2022/01/09 09:35:07;;;;;;;23.23;12.83;;;;;;;-1.13;100.00;97316.69;4945307;28;20499;-56
2022/01/09 09:37:35;;;;;;;24.77;11.93;;;;;;;-0.98;100.00;97318.44;4956594;28;20027;-59
2022/01/09 09:40:01;;;;;;;17.97;11.53;;;;;;;-1.40;100.00;97312.31;4960371;28;20580;-58
2022/01/09 09:42:27;;;;;;;24.73;14.60;;;;;;;-1.13;100.00;97309.13;4962917;28;20023;-58
2022/01/09 09:44:53;;;;;;;20.23;11.90;;;;;;;-0.97;100.00;97312.56;4957409;28;20494;-58
2022/01/09 09:47:20;;;;;;;23.93;12.57;;;;;;;-0.83;100.00;97308.44;4960488;28;20043;-56
2022/01/09 09:49:49;;;;;;;23.83;11.17;;;;;;;-0.77;100.00;97305.13;4952985;28;20031;-55
2022/01/09 09:52:18;;;;;;;19.40;11.20;;;;;;;-0.68;100.00;97310.19;4956896;28;20039;-56
2022/01/09 09:54:46;;;;;;;23.47;13.97;;;;;;;-0.52;100.00;97319.47;4956563;28;20449;-57
2022/01/09 09:57:11;;;;;;;28.17;12.93;;;;;;;-0.50;100.00;97310.22;4953851;28;20026;-55
2022/01/09 09:59:38;;;;;;;20.57;13.37;;;;;;;-0.40;100.00;97319.50;4953395;28;20050;-56
2022/01/09 10:02:17;;;;;;;25.27;13.93;;;;;;;-0.41;100.00;97320.34;4958346;28;20485;-59
2022/01/09 10:04:58;;;;;;;27.13;14.23;;;;;;;-0.41;100.00;97325.38;4958514;28;20027;-54
2022/01/09 10:07:24;;;;;;;25.10;13.90;;;;;;;-0.42;100.00;97327.91;4954916;28;20058;-59
2022/01/09 10:09:55;;;;;;;22.60;14.20;;;;;;;-0.40;100.00;97332.09;4952560;28;20553;-59
2022/01/09 10:12:30;;;;;;;23.60;13.60;;;;;;;-0.18;100.00;97328.78;4953378;28;20478;-60
2022/01/09 10:14:57;;;;;;;27.75;15.05;;;;;;;-0.13;100.00;97331.31;4955823;28;20027;-58
2022/01/09 10:17:24;;;;;;;23.33;13.00;;;;;;;-0.13;100.00;97341.41;4956373;28;20105;-56
2022/01/09 10:19:57;;;;;;;21.00;13.30;;;;;;;-0.08;100.00;97338.03;4952092;28;20042;-58
2022/01/09 10:22:40;;;;;;;23.80;13.97;;;;;;;-0.07;100.00;97334.69;4943635;28;20078;-58
2022/01/09 10:25:27;;;;;;;24.83;13.90;;;;;;;0.14;100.00;97340.56;4953455;28;20062;-59
2022/01/09 10:28:22;;;;;;;20.83;13.40;;;;;;;0.11;100.00;97341.44;4953152;28;20073;-58
2022/01/09 10:30:51;;;;;;;21.70;12.25;;;;;;;0.04;100.00;97336.38;4939339;28;20492;-58
2022/01/09 10:33:20;;;;;;;18.67;11.60;;;;;;;0.00;100.00;97341.41;4956166;28;20627;-55
2022/01/09 10:35:49;;;;;;;21.10;12.43;;;;;;;-0.24;100.00;97338.84;4954865;28;20066;-55
2022/01/09 10:38:22;;;;;;;22.80;11.87;;;;;;;-0.20;100.00;97335.50;4953974;28;20425;-58
2022/01/09 10:40:54;;;;;;;22.13;12.93;;;;;;;-0.24;100.00;97328.78;4956211;28;20123;-58
2022/01/09 10:43:26;;;;;;;19.37;12.07;;;;;;;-0.09;100.00;97323.78;4953191;28;20097;-55
2022/01/09 10:45:58;;;;;;;21.17;11.53;;;;;;;0.13;100.00;97331.38;4951635;28;20430;-55
2022/01/09 10:48:25;;;;;;;20.53;11.67;;;;;;;0.22;100.00;97341.44;4953050;28;20073;-56
2022/01/09 10:50:52;;;;;;;21.97;12.23;;;;;;;0.39;100.00;97342.28;4954508;28;20030;-59
2022/01/09 10:53:30;;;;;;;31.57;16.47;;;;;;;0.47;100.00;97343.09;4954921;28;20027;-56
2022/01/09 10:56:21;;;;;;;23.97;14.43;;;;;;;0.45;100.00;97340.59;4951301;28;20552;-56
2022/01/09 10:58:50;;;;;;;17.47;12.60;;;;;;;0.40;100.00;97339.75;4954930;28;20556;-57
2022/01/09 11:01:25;;;;;;;28.53;15.13;;;;;;;0.51;100.00;97324.63;4953118;28;20031;-56
2022/01/09 11:04:06;;;;;;;29.50;15.18;;;;;;;0.52;100.00;97323.78;4952094;28;20059;-57
2022/01/09 11:06:33;;;;;;;25.87;13.40;;;;;;;0.55;100.00;97340.59;4952495;28;20110;-56
2022/01/09 11:09:01;;;;;;;20.87;12.73;;;;;;;0.70;100.00;97330.50;4952176;28;20512;-57
2022/01/09 11:13:58;;;;;;;21.23;12.97;;;;;;;0.73;100.00;97330.47;4950491;28;20378;-57
2022/01/09 11:16:37;;;;;;;19.37;13.37;;;;;;;0.64;100.00;97341.41;4954975;28;20269;-58
2022/01/09 11:19:13;;;;;;;17.13;12.17;;;;;;;0.83;100.00;97337.19;4951828;28;20027;-56